Time;durP1;ratioP1;P1;durP2;ratioP2;P2;SDS_P1;SDS_P2;PMS_P1;PMS_P2;Temp;Humidity;BMP_temperature;BMP_pressure;BME280_temperature;BME280_humidity;BME280_pressure;Samples;Min_cycle;Max_cycle;Signal;HPM_P1;HPM_P2
2023/02/24 00:01:23;;;;;;;;;;;;;;;2.80;100.00;96180.63;4999766;28;19925;-73
2023/02/24 00:03:52;;;;;;;;;;;;;;;2.68;100.00;96175.13;5004911;28;20040;-74
2023/02/24 00:06:18;;;;;;;;;;;;;;;2.71;100.00;96171.78;4998721;28;19921;-73
2023/02/24 00:08:43;;;;;;;;;;;;;;;2.81;100.00;96173.28;5005849;28;19928;-73
2023/02/24 00:11:11;;;;;;;;;;;;;;;2.92;100.00;96169.09;4999257;28;19968;-72
2023/02/24 00:13:37;;;;;;;;;;;;;;;3.06;100.00;96166.91;5004276;28;19917;-73
2023/02/24 00:16:03;;;;;;;;;;;;;;;3.04;100.00;96160.25;5003155;28;19925;-70
2023/02/24 00:18:31;;;;;;;;;;;;;;;3.00;100.00;96162.03;5008802;28;19917;-72
2023/02/24 00:21:02;;;;;;;;;;;;;;;2.90;100.00;96154.31;5006446;28;19924;-72
2023/02/24 00:23:28;;;;;;;;;;;;;;;2.87;100.00;96150.34;4987365;28;19979;-71
2023/02/24 00:25:59;;;;;;;;;;;;;;;2.75;100.00;96155.69;5003441;28;19921;-72
2023/02/24 00:28:25;;;;;;;;;;;;;;;2.65;100.00;96154.97;4998737;28;19926;-73
2023/02/24 00:30:50;;;;;;;;;;;;;;;2.66;100.00;96156.53;5004238;28;20021;-73
2023/02/24 00:33:20;;;;;;;;;;;;;;;2.60;100.00;96151.66;4999748;28;19936;-73
2023/02/24 00:35:45;;;;;;;;;;;;;;;2.59;100.00;96152.78;5004848;28;19917;-73
2023/02/24 00:38:12;;;;;;;;;;;;;;;2.48;100.00;96145.06;4999185;28;20022;-73
2023/02/24 00:40:39;;;;;;;;;;;;;;;2.35;100.00;96137.97;5004949;28;19917;-73
2023/02/24 00:43:06;;;;;;;;;;;;;;;2.19;100.00;96143.13;4999581;28;20298;-70
2023/02/24 00:45:35;;;;;;;;;;;;;;;2.01;100.00;96141.66;5004498;28;19921;-71
2023/02/24 00:48:03;;;;;;;;;;;;;;;2.04;100.00;96136.38;5003840;28;19921;-72
2023/02/24 00:50:29;;;;;;;;;;;;;;;2.05;100.00;96143.38;5002571;28;19972;-71
2023/02/24 00:52:55;;;;;;;;;;;;;;;2.02;100.00;96144.03;5004081;28;19917;-71
2023/02/24 00:55:22;;;;;;;;;;;;;;;1.96;100.00;96141.81;5000322;28;19924;-72
2023/02/24 00:57:49;;;;;;;;;;;;;;;1.96;100.00;96139.91;5004117;28;19925;-74
2023/02/24 01:00:15;;;;;;;;;;;;;;;1.96;100.00;96145.31;4999887;28;19917;-73
2023/02/24 01:02:43;;;;;;;;;;;;;;;1.94;100.00;96134.03;5004104;28;19918;-75
2023/02/24 01:05:10;;;;;;;;;;;;;;;1.92;100.00;96138.97;4997416;28;19922;-74
2023/02/24 01:07:36;;;;;;;;;;;;;;;2.07;100.00;96138.44;5003749;28;20055;-76
2023/02/24 01:10:03;;;;;;;;;;;;;;;2.17;100.00;96133.78;5002465;28;19956;-71
2023/02/24 01:12:48;;;;;;;;;;;;;;;2.32;100.00;96133.22;5004384;28;20343;-74
2023/02/24 01:15:15;;;;;;;;;;;;;;;2.24;100.00;96125.97;4999577;28;19927;-75
2023/02/24 01:17:40;;;;;;;;;;;;;;;2.07;100.00;96126.81;5010727;28;19917;-75
2023/02/24 01:20:17;;;;;;;;;;;;;;;2.03;100.00;96123.19;5006691;28;20329;-72
2023/02/24 01:22:47;;;;;;;;;;;;;;;2.05;100.00;96118.25;5002340;28;19921;-74
2023/02/24 01:25:13;;;;;;;;;;;;;;;2.07;100.00;96111.44;4999076;28;19980;-73
2023/02/24 01:27:41;;;;;;;;;;;;;;;2.05;100.00;96116.38;5006857;28;19945;-73
2023/02/24 01:30:12;;;;;;;;;;;;;;;2.07;100.00;96116.03;5012069;28;19924;-73
2023/02/24 01:32:37;;;;;;;;;;;;;;;2.09;100.00;96117.28;5009916;28;20310;-73
2023/02/24 01:35:03;;;;;;;;;;;;;;;2.06;100.00;96109.84;5000515;28;19925;-70
2023/02/24 01:37:28;;;;;;;;;;;;;;;2.07;100.00;96116.03;5002990;28;19949;-73
2023/02/24 01:39:54;;;;;;;;;;;;;;;2.06;100.00;96115.22;5007123;28;19988;-72
2023/02/24 01:42:20;;;;;;;;;;;;;;;2.04;100.00;96112.06;4999953;28;19964;-72
2023/02/24 01:44:46;;;;;;;;;;;;;;;1.94;100.00;96106.25;5004067;28;19967;-74
2023/02/24 01:47:13;;;;;;;;;;;;;;;1.55;100.00;96113.53;4998645;28;20421;-72
2023/02/24 01:49:42;;;;;;;;;;;;;;;1.16;100.00;96107.28;5003851;28;19917;-72
2023/02/24 01:52:07;;;;;;;;;;;;;;;1.03;100.00;96111.75;4999992;28;19921;-72
2023/02/24 01:54:38;;;;;;;;;;;;;;;0.91;100.00;96109.69;5003469;28;19928;-73
2023/02/24 01:57:04;;;;;;;;;;;;;;;0.86;100.00;96101.75;5001006;28;20417;-72
2023/02/24 01:59:30;;;;;;;;;;;;;;;0.86;100.00;96102.53;5003335;28;19925;-74
2023/02/24 02:02:03;;;;;;;;;;;;;;;0.93;100.00;96093.97;5003148;28;20012;-73
2023/02/24 02:04:37;;;;;;;;;;;;;;;1.18;100.00;96096.97;5000886;28;19926;-73
2023/02/24 02:07:03;;;;;;;;;;;;;;;1.22;100.00;96095.22;5000296;28;19930;-69
2023/02/24 02:09:28;;;;;;;;;;;;;;;1.38;100.00;96101.69;5001758;28;20370;-72
2023/02/24 02:11:53;;;;;;;;;;;;;;;1.49;100.00;96092.09;5003460;28;19928;-73
2023/02/24 02:14:22;;;;;;;;;;;;;;;1.71;100.00;96095.69;4998788;28;20386;-72
2023/02/24 02:16:48;;;;;;;;;;;;;;;1.65;100.00;96097.00;5003671;28;19917;-72
2023/02/24 02:19:32;;;;;;;;;;;;;;;1.78;100.00;96101.38;5005709;28;19918;-72
2023/02/24 02:22:04;;;;;;;;;;;;;;;1.78;100.00;96087.88;5009193;28;19944;-72
2023/02/24 02:24:38;;;;;;;;;;;;;;;1.69;100.00;96095.22;5003224;28;20020;-72
2023/02/24 02:27:19;;;;;;;;;;;;;;;1.82;100.00;96091.53;5000724;28;19926;-70
2023/02/24 02:29:50;;;;;;;;;;;;;;;1.86;100.00;96087.06;5003517;28;19921;-71
2023/02/24 02:32:35;;;;;;;;;;;;;;;1.50;100.00;96082.91;4997917;28;19928;-71
2023/02/24 02:35:01;;;;;;;;;;;;;;;1.36;100.00;96086.94;5004565;28;20298;-71
2023/02/24 02:37:46;;;;;;;;;;;;;;;1.36;100.00;96086.94;4996714;28;20389;-73
2023/02/24 02:40:22;;;;;;;;;;;;;;;1.27;100.00;96081.56;5004810;28;19980;-72
2023/02/24 02:42:50;;;;;;;;;;;;;;;1.19;100.00;96083.16;5021584;28;19921;-71
2023/02/24 02:45:23;;;;;;;;;;;;;;;1.17;100.00;96077.31;5015979;28;19918;-71
2023/02/24 02:47:58;;;;;;;;;;;;;;;1.06;100.00;96076.84;5022274;28;19921;-71
2023/02/24 02:50:34;;;;;;;;;;;;;;;1.04;100.00;96078.25;5015304;28;20234;-73
2023/02/24 02:53:03;;;;;;;;;;;;;;;1.05;100.00;96079.88;5020758;28;19953;-72
2023/02/24 02:55:52;;;;;;;;;;;;;;;1.12;100.00;96072.88;5022372;28;19989;-71
2023/02/24 02:58:22;;;;;;;;;;;;;;;1.27;100.00;96076.16;5021686;28;19909;-72
2023/02/24 03:01:00;;;;;;;;;;;;;;;1.27;100.00;96070.75;5022382;28;19922;-72
2023/02/24 03:03:27;;;;;;;;;;;;;;;1.37;100.00;96070.44;5015761;28;19925;-72
2023/02/24 03:06:00;;;;;;;;;;;;;;;1.59;100.00;96071.31;5024391;28;19936;-72
2023/02/24 03:08:28;;;;;;;;;;;;;;;1.67;100.00;96065.06;5020199;28;19933;-72
2023/02/24 03:10:56;;;;;;;;;;;;;;;1.71;100.00;96069.50;5024521;28;19945;-72
2023/02/24 03:13:24;;;;;;;;;;;;;;;1.76;100.00;96070.44;5017073;28;19960;-72
2023/02/24 03:15:51;;;;;;;;;;;;;;;1.85;100.00;96061.16;5020881;28;19990;-71
2023/02/24 03:18:37;;;;;;;;;;;;;;;1.74;100.00;96067.25;5015634;28;19918;-71
2023/02/24 03:21:06;;;;;;;;;;;;;;;1.78;100.00;96065.50;5017103;28;19918;-69
2023/02/24 03:23:35;;;;;;;;;;;;;;;1.84;100.00;96064.22;5020498;28;19921;-71
2023/02/24 03:26:10;;;;;;;;;;;;;;;1.87;100.00;96066.22;5007704;28;19917;-72
2023/02/24 03:28:39;;;;;;;;;;;;;;;1.94;100.00;96063.03;5013676;28;19921;-73
2023/02/24 03:31:31;;;;;;;;;;;;;;;2.10;100.00;96069.44;5013513;28;19925;-71
2023/02/24 03:34:02;;;;;;;;;;;;;;;2.01;100.00;96068.72;4989676;28;20060;-73
2023/02/24 03:36:28;;;;;;;;;;;;;;;1.92;100.00;96066.06;4998163;28;20290;-73
2023/02/24 03:38:57;;;;;;;;;;;;;;;1.84;100.00;96059.59;5003911;28;19928;-72
2023/02/24 03:41:23;;;;;;;;;;;;;;;1.79;100.00;96067.88;5005386;28;20188;-72
2023/02/24 03:43:49;;;;;;;;;;;;;;;1.70;100.00;96061.72;5014316;28;20007;-74
2023/02/24 03:46:18;;;;;;;;;;;;;;;1.56;100.00;96055.75;5009093;28;19922;-71
2023/02/24 03:48:49;;;;;;;;;;;;;;;1.50;100.00;96068.63;5011078;28;19937;-72
2023/02/24 03:51:22;;;;;;;;;;;;;;;1.40;100.00;96061.66;5003810;28;20016;-73
2023/02/24 03:53:55;;;;;;;;;;;;;;;1.48;100.00;96068.16;5014483;28;19922;-71
2023/02/24 03:56:39;;;;;;;;;;;;;;;1.30;100.00;96064.72;5005271;28;19925;-73
2023/02/24 03:59:08;;;;;;;;;;;;;;;1.37;100.00;96058.81;5001427;28;19917;-70
2023/02/24 04:01:34;;;;;;;;;;;;;;;1.30;100.00;96062.03;5005424;28;19917;-73
2023/02/24 04:03:59;;;;;;;;;;;;;;;1.38;100.00;96065.81;5008476;28;20337;-73
2023/02/24 04:06:24;;;;;;;;;;;;;;;1.47;100.00;96061.19;4999713;28;19929;-73
2023/02/24 04:08:50;;;;;;;;;;;;;;;1.47;100.00;96055.78;5005572;28;19917;-71
2023/02/24 04:11:21;;;;;;;;;;;;;;;1.26;100.00;96059.19;4998424;28;20378;-71
2023/02/24 04:13:49;;;;;;;;;;;;;;;1.11;100.00;96059.69;5007600;28;19917;-74
2023/02/24 04:16:26;;;;;;;;;;;;;;;1.15;100.00;96060.63;5000858;28;19917;-72
2023/02/24 04:18:53;;;;;;;;;;;;;;;1.29;100.00;96063.13;5006063;28;20294;-72
2023/02/24 04:21:21;;;;;;;;;;;;;;;1.39;100.00;96062.78;5003304;28;19925;-73
2023/02/24 04:23:47;;;;;;;;;;;;;;;1.33;100.00;96056.78;5006673;28;19917;-72
2023/02/24 04:26:14;;;;;;;;;;;;;;;1.31;100.00;96052.81;5000506;28;19923;-73
2023/02/24 04:28:41;;;;;;;;;;;;;;;1.32;100.00;96044.41;5003106;28;19924;-70
2023/02/24 04:31:09;;;;;;;;;;;;;;;1.34;100.00;96046.78;5000086;28;19926;-71
2023/02/24 04:33:35;;;;;;;;;;;;;;;1.32;100.00;96049.00;5004088;28;19918;-72
2023/02/24 04:36:00;;;;;;;;;;;;;;;1.38;100.00;96050.41;5004361;28;19921;-73
2023/02/24 04:38:26;;;;;;;;;;;;;;;1.56;100.00;96043.03;4999950;28;20493;-73
2023/02/24 04:40:52;;;;;;;;;;;;;;;1.65;100.00;96046.47;5004511;28;19928;-72
2023/02/24 04:43:17;;;;;;;;;;;;;;;1.65;100.00;96043.78;5000593;28;19925;-72
2023/02/24 04:45:43;;;;;;;;;;;;;;;1.75;100.00;96042.66;5008549;28;19917;-72
2023/02/24 04:48:14;;;;;;;;;;;;;;;1.86;100.00;96037.66;4999526;28;19921;-72
2023/02/24 04:50:41;;;;;;;;;;;;;;;1.87;100.00;96034.66;5003268;28;19924;-73
2023/02/24 04:53:08;;;;;;;;;;;;;;;1.89;100.00;96021.59;4999935;28;20013;-70
2023/02/24 04:55:38;;;;;;;;;;;;;;;1.51;100.00;96021.63;5005294;28;19960;-72
2023/02/24 04:58:17;;;;;;;;;;;;;;;1.48;100.00;96016.91;4994971;28;19928;-69
2023/02/24 05:00:43;;;;;;;;;;;;;;;1.47;100.00;96016.09;5016987;28;19925;-73
2023/02/24 05:03:10;;;;;;;;;;;;;;;1.51;100.00;96016.22;5001359;28;20317;-73
2023/02/24 05:05:35;;;;;;;;;;;;;;;1.61;100.00;96013.16;5004829;28;19918;-74
2023/02/24 05:08:10;;;;;;;;;;;;;;;1.75;100.00;96006.72;5005418;28;19922;-75
2023/02/24 05:10:37;;;;;;;;;;;;;;;1.62;100.00;96016.66;5004054;28;19963;-72
2023/02/24 05:13:05;;;;;;;;;;;;;;;1.53;100.00;96008.59;5001784;28;19917;-69
2023/02/24 05:15:31;;;;;;;;;;;;;;;1.68;100.00;96008.06;5002856;28;20186;-73
2023/02/24 05:18:00;;;;;;;;;;;;;;;1.71;100.00;96003.91;5003975;28;20012;-73
2023/02/24 05:23:12;;;;;;;;;;;;;;;1.79;100.00;95986.88;4999541;28;20303;-71
2023/02/24 05:25:41;;;;;;;;;;;;;;;1.50;100.00;95993.84;5003754;28;19924;-75
2023/02/24 05:28:07;;;;;;;;;;;;;;;1.14;100.00;95981.63;4998556;28;20286;-73
2023/02/24 05:30:32;;;;;;;;;;;;;;;0.91;100.00;95988.38;5003895;28;19918;-72
2023/02/24 05:32:58;;;;;;;;;;;;;;;0.82;100.00;95993.00;5003715;28;20331;-73
2023/02/24 05:35:23;;;;;;;;;;;;;;;0.88;100.00;95995.19;4999453;28;20545;-72
2023/02/24 05:37:50;;;;;;;;;;;;;;;1.03;100.00;95988.50;5003494;28;19917;-71
2023/02/24 05:40:19;;;;;;;;;;;;;;;1.12;100.00;95991.16;4998310;28;19965;-71
2023/02/24 05:42:44;;;;;;;;;;;;;;;1.31;100.00;95988.88;5003898;28;20043;-72
2023/02/24 05:45:10;;;;;;;;;;;;;;;1.36;100.00;95987.88;4999012;28;20032;-72
2023/02/24 05:47:37;;;;;;;;;;;;;;;1.49;100.00;95988.78;5002660;28;19922;-72
2023/02/24 05:50:03;;;;;;;;;;;;;;;1.52;100.00;95988.13;5001441;28;19917;-71
2023/02/24 05:52:28;;;;;;;;;;;;;;;1.50;100.00;95987.66;5003469;28;20301;-72
2023/02/24 05:54:54;;;;;;;;;;;;;;;1.63;100.00;95985.84;5010911;28;20012;-72
2023/02/24 05:57:31;;;;;;;;;;;;;;;1.66;100.00;95980.59;5008521;28;19925;-72
2023/02/24 05:59:57;;;;;;;;;;;;;;;1.72;100.00;95990.06;5006662;28;20279;-72
2023/02/24 06:02:36;;;;;;;;;;;;;;;1.84;100.00;95986.69;4997039;28;19928;-72
2023/02/24 06:05:03;;;;;;;;;;;;;;;1.87;100.00;95982.53;5004480;28;19935;-71
2023/02/24 06:07:33;;;;;;;;;;;;;;;1.86;100.00;95989.06;5003936;28;19936;-74
2023/02/24 06:09:59;;;;;;;;;;;;;;;1.88;100.00;95981.41;5004383;28;19924;-74
2023/02/24 06:12:32;;;;;;;;;;;;;;;1.93;100.00;95981.22;5009276;28;20216;-72
2023/02/24 06:14:57;;;;;;;;;;;;;;;1.87;100.00;95977.94;5012936;28;20012;-73
2023/02/24 06:17:23;;;;;;;;;;;;;;;1.82;100.00;95980.81;4997577;28;20558;-72
2023/02/24 06:19:49;;;;;;;;;;;;;;;1.89;100.00;95977.59;5003427;28;19917;-72
2023/02/24 06:22:17;;;;;;;;;;;;;;;1.90;100.00;95977.25;4998269;28;19917;-72
2023/02/24 06:24:43;;;;;;;;;;;;;;;1.92;100.00;95980.41;5003788;28;20425;-72
2023/02/24 06:27:09;;;;;;;;;;;;;;;1.66;100.00;95980.59;4998018;28;20012;-72
2023/02/24 06:29:37;;;;;;;;;;;;;;;1.19;100.00;95985.25;5001443;28;19925;-72
2023/02/24 06:32:09;;;;;;;;;;;;;;;1.04;100.00;95973.88;4983529;28;19925;-71
2023/02/24 06:34:35;;;;;;;;;;;;;;;0.98;100.00;95988.66;5002486;28;19918;-74
2023/02/24 06:37:02;;;;;;;;;;;;;;;1.06;100.00;95982.47;5001125;28;19925;-73
2023/02/24 06:39:28;;;;;;;;;;;;;;;1.20;100.00;95986.84;4999358;28;19925;-73
2023/02/24 06:41:53;;;;;;;;;;;;;;;1.16;100.00;95981.31;5002781;28;20081;-74
2023/02/24 06:44:18;;;;;;;;;;;;;;;1.04;100.00;95973.09;4995444;28;19940;-71
2023/02/24 06:46:45;;;;;;;;;;;;;;;0.90;100.00;95978.69;5001033;28;19928;-68
2023/02/24 06:49:11;;;;;;;;;;;;;;;0.87;100.00;95977.44;4996141;28;20286;-68
2023/02/24 06:51:37;;;;;;;;;;;;;;;0.73;100.00;95974.91;5002370;28;19917;-69
2023/02/24 06:54:04;;;;;;;;;;;;;;;0.49;100.00;95967.38;5000618;28;19922;-77
2023/02/24 06:56:33;;;;;;;;;;;;;;;0.53;100.00;95971.00;5002365;28;19917;-71
2023/02/24 06:58:59;;;;;;;;;;;;;;;0.66;100.00;95974.59;5003023;28;20380;-69
2023/02/24 07:01:26;;;;;;;;;;;;;;;0.90;100.00;95975.97;4998859;28;19957;-71
2023/02/24 07:04:16;;;;;;;;;;;;;;;1.03;100.00;95968.81;5001644;28;19926;-67
2023/02/24 07:06:43;;;;;;;;;;;;;;;0.88;100.00;95973.63;5000978;28;19921;-68
2023/02/24 07:09:11;;;;;;;;;;;;;;;0.87;100.00;95965.84;4998788;28;19923;-69
2023/02/24 07:11:40;;;;;;;;;;;;;;;0.80;100.00;95965.56;4987579;28;19964;-68
2023/02/24 07:14:06;;;;;;;;;;;;;;;0.72;100.00;95965.25;5001559;28;19980;-68
2023/02/24 07:16:33;;;;;;;;;;;;;;;0.67;100.00;95970.03;5005575;28;19971;-68
2023/02/24 07:19:01;;;;;;;;;;;;;;;0.73;100.00;95966.03;5005654;28;20361;-70
2023/02/24 07:21:29;;;;;;;;;;;;;;;0.93;100.00;95975.34;5001230;28;19973;-71
2023/02/24 07:23:55;;;;;;;;;;;;;;;1.18;100.00;95967.50;5006522;28;19917;-68
2023/02/24 07:26:22;;;;;;;;;;;;;;;1.38;100.00;95968.69;5004961;28;19922;-71
2023/02/24 07:28:48;;;;;;;;;;;;;;;1.54;100.00;95958.91;5006444;28;19918;-68
2023/02/24 07:31:17;;;;;;;;;;;;;;;1.65;100.00;95952.00;5003222;28;19988;-69
2023/02/24 07:33:45;;;;;;;;;;;;;;;2.01;100.00;95956.06;5010709;28;19918;-68
2023/02/24 07:36:13;;;;;;;;;;;;;;;2.40;100.00;95951.28;5019535;28;19917;-69
2023/02/24 07:38:41;;;;;;;;;;;;;;;2.31;100.00;95944.41;5017665;28;20337;-68
2023/02/24 07:41:09;;;;;;;;;;;;;;;2.03;100.00;95942.22;5005754;28;19917;-69
2023/02/24 07:43:35;;;;;;;;;;;;;;;2.14;100.00;95935.28;4992279;28;20345;-68
2023/02/24 07:46:08;;;;;;;;;;;;;;;2.44;100.00;95930.59;5010739;28;20612;-68
2023/02/24 07:48:35;;;;;;;;;;;;;;;2.73;100.00;95936.19;5009772;28;19925;-69
2023/02/24 07:51:00;;;;;;;;;;;;;;;3.01;100.00;95926.34;5011001;28;19925;-69
2023/02/24 07:53:26;;;;;;;;;;;;;;;2.63;100.00;95927.38;4988751;28;19917;-69
2023/02/24 07:55:52;;;;;;;;;;;;;;;2.27;100.00;95931.53;5010768;28;20409;-70
2023/02/24 07:58:17;;;;;;;;;;;;;;;2.39;100.00;95925.38;5008949;28;19917;-68
2023/02/24 08:00:58;;;;;;;;;;;;;;;2.38;100.00;95920.34;5012735;28;19925;-69
2023/02/24 08:03:24;;;;;;;;;;;;;;;2.60;100.00;95917.22;4990648;28;19929;-68
2023/02/24 08:05:53;;;;;;;;;;;;;;;2.84;100.00;95910.28;5014920;28;19917;-69
2023/02/24 08:08:19;;;;;;;;;;;;;;;2.73;100.00;95912.63;5024170;28;19935;-71
2023/02/24 08:10:46;;;;;;;;;;;;;;;2.84;100.00;95902.19;5024886;28;19914;-69
2023/02/24 08:13:11;;;;;;;;;;;;;;;3.04;100.00;95911.31;5012813;28;19960;-67
2023/02/24 08:15:36;;;;;;;;;;;;;;;3.19;100.00;95902.56;5017328;28;19928;-70
2023/02/24 08:18:02;;;;;;;;;;;;;;;3.75;100.00;95903.88;5014185;28;19964;-74
2023/02/24 08:20:34;;;;;;;;;;;;;;;3.41;100.00;95904.00;5008110;28;19929;-69
2023/02/24 08:23:00;;;;;;;;;;;;;;;3.89;100.00;95896.16;5012273;28;19918;-69
2023/02/24 08:25:34;;;;;;;;;;;;;;;3.88;100.00;95900.00;5006364;28;19921;-70
2023/02/24 08:28:04;;;;;;;;;;;;;;;2.90;100.00;95890.03;5010311;28;19967;-69
2023/02/24 08:30:37;;;;;;;;;;;;;;;3.13;100.00;95881.47;5010841;28;19929;-69
2023/02/24 08:33:02;;;;;;;;;;;;;;;3.12;100.00;95874.50;5010730;28;19917;-73
2023/02/24 08:35:34;;;;;;;;;;;;;;;3.11;100.00;95875.59;5007078;28;19921;-71
2023/02/24 08:38:07;;;;;;;;;;;;;;;3.32;100.00;95870.88;5014026;28;19924;-71
2023/02/24 08:43:08;;;;;;;;;;;;;;;3.40;100.00;95872.69;5019995;28;19924;-70
2023/02/24 08:45:37;;;;;;;;;;;;;;;3.62;100.00;95867.91;5009499;28;19925;-70
2023/02/24 08:48:17;;;;;;;;;;;;;;;3.36;100.00;95870.97;5008548;28;20362;-72
2023/02/24 08:50:44;;;;;;;;;;;;;;;3.27;100.00;95862.97;5010578;28;19917;-68
2023/02/24 08:53:14;;;;;;;;;;;;;;;3.67;100.00;95866.84;5007250;28;19921;-69
2023/02/24 08:55:39;;;;;;;;;;;;;;;3.96;100.00;95873.88;5012640;28;19995;-69
2023/02/24 08:58:09;;;;;;;;;;;;;;;4.11;100.00;95870.47;5007172;28;19917;-73
2023/02/24 09:00:47;;;;;;;;;;;;;;;4.47;100.00;95867.94;4992113;28;19928;-69
2023/02/24 09:03:26;;;;;;;;;;;;;;;5.14;100.00;95865.34;5008901;28;19921;-69
2023/02/24 09:06:05;;;;;;;;;;;;;;;4.80;100.00;95856.75;5011330;28;19917;-68
2023/02/24 09:08:32;;;;;;;;;;;;;;;5.11;100.00;95855.19;5010148;28;19944;-69
2023/02/24 09:10:58;;;;;;;;;;;;;;;5.46;100.00;95857.94;5012104;28;19922;-69
2023/02/24 09:13:31;;;;;;;;;;;;;;;5.87;100.00;95854.91;5009653;28;19921;-69
2023/02/24 09:15:57;;;;;;;;;;;;;;;6.29;100.00;95862.41;5013067;28;19984;-68
2023/02/24 09:18:29;;;;;;;;;;;;;;;6.23;100.00;95861.91;5009149;28;20278;-69
2023/02/24 09:20:55;;;;;;;;;;;;;;;6.74;100.00;95852.72;5020463;28;19988;-69
2023/02/24 09:23:28;;;;;;;;;;;;;;;7.04;100.00;95852.84;5015671;28;19918;-70
2023/02/24 09:25:54;;;;;;;;;;;;;;;7.17;100.00;95848.00;5013566;28;19926;-69
2023/02/24 09:28:23;;;;;;;;;;;;;;;7.56;100.00;95849.72;5005071;28;19922;-70
2023/02/24 09:30:54;;;;;;;;;;;;;;;7.97;100.00;95841.72;5010449;28;20004;-69
2023/02/24 09:33:20;;;;;;;;;;;;;;;8.38;100.00;95853.50;5005167;28;19924;-70
2023/02/24 09:35:48;;;;;;;;;;;;;;;8.24;100.00;95854.13;5009191;28;19922;-69
2023/02/24 09:38:15;;;;;;;;;;;;;;;8.21;100.00;95846.69;5003803;28;19924;-70
2023/02/24 09:40:47;;;;;;;;;;;;;;;8.72;100.00;95831.66;5009981;28;20337;-69
2023/02/24 09:43:24;;;;;;;;;;;;;;;8.67;100.00;95834.72;5004714;28;19925;-69
2023/02/24 09:45:52;;;;;;;;;;;;;;;9.08;100.00;95825.75;5008316;28;19939;-69
2023/02/24 09:48:42;;;;;;;;;;;;;;;9.61;100.00;95827.28;5002658;28;19921;-69
2023/02/24 09:51:09;;;;;;;;;;;;;;;10.00;100.00;95815.75;5002920;28;19944;-74
2023/02/24 09:53:38;;;;;;;;;;;;;;;9.55;100.00;95813.97;5008909;28;19940;-68
2023/02/24 09:56:07;;;;;;;;;;;;;;;9.87;100.00;95813.34;5004709;28;19975;-74
2023/02/24 09:58:46;;;;;;;;;;;;;;;9.85;100.00;95815.69;5010267;28;20354;-69
2023/02/24 10:01:31;;;;;;;;;;;;;;;10.31;99.26;95817.84;5005981;28;19985;-67
2023/02/24 10:04:09;;;;;;;;;;;;;;;10.27;97.51;95810.78;5007237;28;19921;-69
2023/02/24 10:06:37;;;;;;;;;;;;;;;9.83;100.00;95809.84;5008445;28;20294;-73
2023/02/24 10:09:14;;;;;;;;;;;;;;;9.85;100.00;95810.22;5005640;28;20011;-73
2023/02/24 10:11:52;;;;;;;;;;;;;;;10.24;100.00;95803.34;5007087;28;19924;-67
2023/02/24 10:14:37;;;;;;;;;;;;;;;10.04;100.00;95800.91;5005422;28;20374;-69
2023/02/24 10:17:24;;;;;;;;;;;;;;;9.88;100.00;95803.97;5005164;28;19953;-73
2023/02/24 10:20:01;;;;;;;;;;;;;;;9.88;100.00;95795.75;5020287;28;19925;-69
2023/02/24 10:22:49;;;;;;;;;;;;;;;9.76;100.00;95794.16;5023831;28;19917;-70
2023/02/24 10:25:17;;;;;;;;;;;;;;;9.76;100.00;95793.38;5010425;28;20287;-70
2023/02/24 10:27:51;;;;;;;;;;;;;;;9.84;100.00;95786.78;5006831;28;19921;-69
2023/02/24 10:30:39;;;;;;;;;;;;;;;10.32;100.00;95788.53;5004185;28;19918;-69
2023/02/24 10:33:12;;;;;;;;;;;;;;;10.76;99.04;95776.47;5004549;28;20382;-70
2023/02/24 10:35:37;;;;;;;;;;;;;;;11.24;96.07;95786.28;5008390;28;19964;-70
2023/02/24 10:38:04;;;;;;;;;;;;;;;11.13;96.17;95793.69;5005955;28;19917;-74
2023/02/24 10:40:43;;;;;;;;;;;;;;;11.12;94.42;95790.19;5008822;28;20365;-68
2023/02/24 10:43:09;;;;;;;;;;;;;;;11.03;95.18;95779.63;5006344;28;19917;-69
2023/02/24 10:45:43;;;;;;;;;;;;;;;10.85;98.50;95782.34;5008603;28;19921;-69
2023/02/24 10:48:15;;;;;;;;;;;;;;;11.37;95.37;95776.47;5002664;28;19975;-69
2023/02/24 10:50:44;;;;;;;;;;;;;;;11.33;95.39;95761.22;5007045;28;19985;-70
2023/02/24 10:54:08;;;;;;;;;;;;;;;11.24;96.06;95756.91;5005795;28;19917;-69
2023/02/24 10:56:25;;;;;;;;;;;;;;;10.89;97.68;95765.91;5004438;28;19929;-69
2023/02/24 11:01:58;;;;;;;;;;;;;;;11.11;94.42;95755.75;5012686;28;20020;-69
2023/02/24 11:10:10;;;;;;;;;;;;;;;10.69;96.62;95740.88;5016967;28;20270;-72
2023/02/24 11:18:27;;;;;;;;;;;;;;;11.30;92.31;95727.13;5008253;28;20384;-71
2023/02/24 11:20:54;;;;;;;;;;;;;;;11.42;90.65;95714.97;5009803;28;20020;-68
2023/02/24 11:23:27;;;;;;;;;;;;;;;11.35;89.59;95715.00;5006808;28;19917;-68
2023/02/24 11:25:57;;;;;;;;;;;;;;;11.47;89.59;95709.09;5010017;28;20448;-69
2023/02/24 11:28:41;;;;;;;;;;;;;;;11.39;89.27;95704.78;5005008;28;19930;-69
2023/02/24 11:31:39;;;;;;;;;;;;;;;11.57;89.47;95702.00;5006942;28;20008;-68
2023/02/24 11:34:04;;;;;;;;;;;;;;;11.81;87.76;95695.63;4996015;28;19921;-76
2023/02/24 11:36:40;;;;;;;;;;;;;;;11.78;88.30;95692.91;5009459;28;19918;-68
2023/02/24 11:39:09;;;;;;;;;;;;;;;11.91;87.78;95694.03;5004544;28;19929;-68
2023/02/24 11:41:39;;;;;;;;;;;;;;;11.34;88.76;95681.28;5011834;28;19922;-70
2023/02/24 11:44:07;;;;;;;;;;;;;;;11.70;88.38;95685.88;5007354;28;19924;-72
2023/02/24 11:46:38;;;;;;;;;;;;;;;11.91;87.09;95671.31;5009911;28;19947;-69
2023/02/24 11:49:09;;;;;;;;;;;;;;;12.08;86.77;95670.41;4989373;28;19973;-73
2023/02/24 11:51:36;;;;;;;;;;;;;;;12.35;84.35;95665.16;5011563;28;19921;-69
2023/02/24 11:54:12;;;;;;;;;;;;;;;12.52;82.58;95668.16;5011122;28;19953;-71
2023/02/24 11:56:41;;;;;;;;;;;;;;;12.33;82.45;95656.50;4993530;28;20319;-69
2023/02/24 11:59:14;;;;;;;;;;;;;;;12.22;83.62;95651.09;5005443;28;19925;-69
2023/02/24 12:01:49;;;;;;;;;;;;;;;12.11;85.95;95641.38;5009464;28;19957;-69
2023/02/24 12:04:23;;;;;;;;;;;;;;;11.82;88.94;95642.31;5004487;28;19936;-69
2023/02/24 12:06:48;;;;;;;;;;;;;;;11.43;91.55;95626.84;5008053;28;19925;-71
2023/02/24 12:09:18;;;;;;;;;;;;;;;10.90;93.67;95625.81;5005955;28;19922;-69
2023/02/24 12:11:47;;;;;;;;;;;;;;;9.94;100.00;95616.47;5011206;28;20433;-69
2023/02/24 12:14:15;;;;;;;;;;;;;;;9.89;100.00;95622.31;5006121;28;19917;-70
2023/02/24 12:16:44;;;;;;;;;;;;;;;9.83;100.00;95609.38;5010731;28;20409;-70
2023/02/24 12:19:19;;;;;;;;;;;;;;;9.99;100.00;95609.03;5006106;28;19921;-72
2023/02/24 12:21:49;;;;;;;;;;;;;;;9.89;100.00;95602.38;5010142;28;20032;-71
2023/02/24 12:24:15;;;;;;;;;;;;;;;10.02;100.00;95597.31;5007075;28;19921;-71
2023/02/24 12:26:46;;;;;;;;;;;;;;;9.88;100.00;95598.06;5009904;28;19957;-70
2023/02/24 12:29:15;;;;;;;;;;;;;;;9.87;100.00;95597.28;5006734;28;19955;-70
2023/02/24 12:31:52;;;;;;;;;;;;;;;10.10;100.00;95594.19;5010900;28;20024;-70
2023/02/24 12:34:29;;;;;;;;;;;;;;;10.18;100.00;95588.72;5017984;28;19923;-71
2023/02/24 12:37:15;;;;;;;;;;;;;;;10.44;100.00;95587.56;5019850;28;19957;-70
2023/02/24 12:39:40;;;;;;;;;;;;;;;10.54;100.00;95586.78;5007455;28;19917;-70
2023/02/24 12:42:27;;;;;;;;;;;;;;;10.76;99.33;95579.28;5004112;28;19937;-69
2023/02/24 12:45:11;;;;;;;;;;;;;;;10.63;99.09;95576.19;5010188;28;19940;-69
2023/02/24 12:47:36;;;;;;;;;;;;;;;10.77;98.15;95569.09;5005325;28;19925;-71
2023/02/24 12:50:15;;;;;;;;;;;;;;;10.47;99.77;95565.66;5010097;28;20255;-75
2023/02/24 12:52:56;;;;;;;;;;;;;;;10.65;99.61;95557.41;5024351;28;19918;-69
2023/02/24 12:55:29;;;;;;;;;;;;;;;10.90;98.82;95553.81;5012358;28;20193;-72
2023/02/24 12:58:04;;;;;;;;;;;;;;;11.15;97.13;95552.97;5009158;28;19963;-69
2023/02/24 13:00:35;;;;;;;;;;;;;;;11.28;96.64;95541.13;4990224;28;19918;-70
2023/02/24 13:03:03;;;;;;;;;;;;;;;11.48;95.02;95546.88;5010041;28;19917;-69
2023/02/24 13:05:33;;;;;;;;;;;;;;;11.46;95.09;95537.50;5006953;28;19928;-69
2023/02/24 13:08:09;;;;;;;;;;;;;;;11.58;94.15;95534.31;5007521;28;19951;-68
2023/02/24 13:10:45;;;;;;;;;;;;;;;11.48;94.87;95532.41;5008129;28;19918;-68
2023/02/24 13:13:11;;;;;;;;;;;;;;;11.78;94.54;95523.59;5004203;28;19925;-69
2023/02/24 13:15:36;;;;;;;;;;;;;;;11.91;93.21;95520.41;5007004;28;19918;-69
2023/02/24 13:18:01;;;;;;;;;;;;;;;11.98;92.43;95517.59;5008346;28;19924;-74
2023/02/24 13:20:35;;;;;;;;;;;;;;;12.03;91.52;95515.19;5006397;28;19975;-69